createdAt,value
2018-06-15T00:02:22.077Z,101187.66
2018-06-15T00:04:51.071Z,101185.09
2018-06-15T00:07:19.891Z,101180.68
2018-06-15T00:09:48.760Z,101178.45
2018-06-15T00:12:17.654Z,101175.63
2018-06-15T00:14:46.532Z,101182.02
2018-06-15T00:17:15.375Z,101179.62
2018-06-15T00:19:44.253Z,101174.34
2018-06-15T00:22:13.144Z,101171.43
2018-06-15T00:24:42.028Z,101168.69
2018-06-15T00:27:10.879Z,101172.48
2018-06-15T00:29:39.740Z,101167.52
2018-06-15T00:32:08.621Z,101162.20
2018-06-15T00:34:37.500Z,101161.70
2018-06-15T00:37:06.388Z,101168.88
2018-06-15T00:39:35.260Z,101161.19
2018-06-15T00:42:04.149Z,101164.77
2018-06-15T00:44:33.049Z,101159.47
2018-06-15T00:47:01.933Z,101159.13
2018-06-15T00:49:30.827Z,101162.35
2018-06-15T00:51:59.730Z,101155.87
2018-06-15T00:54:28.619Z,101153.82
2018-06-15T00:57:33.869Z,101158.09
2018-06-15T01:00:02.752Z,101154.70
2018-06-15T01:02:31.625Z,101161.20
2018-06-15T01:05:00.539Z,101158.98
2018-06-15T01:07:29.346Z,101159.56
2018-06-15T01:09:58.222Z,101155.16
2018-06-15T01:12:27.082Z,101150.57
2018-06-15T01:14:55.940Z,101149.20
2018-06-15T01:17:24.776Z,101142.52
2018-06-15T01:19:53.679Z,101144.41
2018-06-15T01:22:22.560Z,101145.26
2018-06-15T01:24:51.450Z,101145.42
2018-06-15T01:27:20.344Z,101142.89
2018-06-15T01:29:49.222Z,101148.36
2018-06-15T01:32:18.120Z,101144.73
2018-06-15T01:34:47.008Z,101143.57
2018-06-15T01:37:15.896Z,101145.98
2018-06-15T01:39:44.772Z,101139.31
2018-06-15T01:42:13.627Z,101144.35
2018-06-15T01:44:42.495Z,101141.32
2018-06-15T01:47:11.381Z,101138.61
2018-06-15T01:49:40.290Z,101133.47
2018-06-15T01:52:09.207Z,101135.19
2018-06-15T01:54:38.100Z,101132.45
2018-06-15T01:57:06.974Z,101133.81
2018-06-15T01:59:35.865Z,101135.19
2018-06-15T02:02:04.729Z,101139.83
2018-06-15T02:04:33.576Z,101136.06
2018-06-15T02:07:02.484Z,101140.50
2018-06-15T02:09:31.410Z,101136.23
2018-06-15T02:12:00.278Z,101131.78
2018-06-15T02:14:29.155Z,101133.84
2018-06-15T02:16:58.032Z,101141.52
2018-06-15T02:19:26.882Z,101144.70
2018-06-15T02:21:55.749Z,101145.97
2018-06-15T02:24:24.629Z,101136.89
2018-06-15T02:26:53.496Z,101149.55
2018-06-15T02:29:22.403Z,101150.41
2018-06-15T02:31:51.252Z,101151.78
2018-06-15T02:34:20.126Z,101150.86
2018-06-15T02:36:49.011Z,101145.27
2018-06-15T02:39:17.849Z,101152.11
2018-06-15T02:41:46.686Z,101153.33
2018-06-15T02:44:15.565Z,101158.11
2018-06-15T02:46:44.456Z,101155.06
2018-06-15T02:49:13.326Z,101166.86
2018-06-15T02:51:42.192Z,101163.95
2018-06-15T02:54:11.072Z,101166.52
2018-06-15T02:56:39.913Z,101165.31
2018-06-15T02:59:08.815Z,101165.48
2018-06-15T03:01:37.680Z,101158.48
2018-06-15T03:04:06.551Z,101157.45
2018-06-15T03:06:35.466Z,101155.57
2018-06-15T03:09:05.846Z,101161.56
2018-06-15T03:11:34.750Z,101159.33
2018-06-15T03:14:03.681Z,101161.39
2018-06-15T03:16:32.574Z,101167.21
2018-06-15T03:19:01.477Z,101168.03
2018-06-15T03:21:30.365Z,101167.55
2018-06-15T03:23:59.202Z,101168.41
2018-06-15T03:26:28.078Z,101166.86
2018-06-15T03:28:56.930Z,101173.02
2018-06-15T03:31:25.824Z,101174.55
2018-06-15T03:33:54.864Z,101173.53
2018-06-15T03:36:23.755Z,101172.16
2018-06-15T03:38:52.638Z,101169.94
2018-06-15T03:41:21.492Z,101171.83
2018-06-15T03:43:50.361Z,101165.84
2018-06-15T03:46:19.278Z,101171.45
2018-06-15T03:48:48.323Z,101169.00
2018-06-15T03:51:17.203Z,101175.89
2018-06-15T03:53:46.070Z,101183.11
2018-06-15T03:56:14.965Z,101183.27
2018-06-15T03:58:43.823Z,101186.18
2018-06-15T04:01:12.672Z,101196.45
2018-06-15T04:03:41.549Z,101198.84
2018-06-15T04:06:10.406Z,101199.86
2018-06-15T04:08:39.242Z,101198.84
2018-06-15T04:11:08.081Z,101201.59
2018-06-15T04:13:37.062Z,101200.73
2018-06-15T04:16:05.990Z,101201.23
2018-06-15T04:18:34.899Z,101204.14
2018-06-15T04:21:03.766Z,101208.93
2018-06-15T04:23:32.625Z,101200.56
2018-06-15T04:26:01.500Z,101208.95
2018-06-15T04:28:30.350Z,101207.06
2018-06-15T04:30:59.192Z,101209.97
2018-06-15T04:33:28.073Z,101203.98
2018-06-15T04:35:57.026Z,101209.98
2018-06-15T04:38:25.850Z,101206.20
2018-06-15T04:40:54.759Z,101205.81
2018-06-15T04:43:23.656Z,101206.66
2018-06-15T04:45:52.559Z,101204.59
2018-06-15T04:48:21.400Z,101203.59
2018-06-15T04:50:50.278Z,101195.55
2018-06-15T04:53:19.132Z,101207.19
2018-06-15T04:55:48.003Z,101206.67
2018-06-15T04:58:16.854Z,101203.77
2018-06-15T05:00:45.719Z,101199.31
2018-06-15T05:03:15.187Z,101199.80
2018-06-15T05:05:44.844Z,101201.03
2018-06-15T05:08:13.732Z,101210.66
2018-06-15T05:10:42.604Z,101211.56
2018-06-15T05:13:11.745Z,101208.51
2018-06-15T05:15:40.646Z,101203.88
2018-06-15T05:18:09.465Z,101203.20
2018-06-15T05:20:38.301Z,101217.89
2018-06-15T05:23:07.159Z,101214.81
2018-06-15T05:25:36.033Z,101216.87
2018-06-15T05:28:04.903Z,101216.19
2018-06-15T05:30:33.737Z,101221.66
2018-06-15T05:33:02.641Z,101223.00
2018-06-15T05:35:31.500Z,101225.73
2018-06-15T05:38:00.361Z,101229.64
2018-06-15T05:40:29.196Z,101228.48
2018-06-15T05:42:58.063Z,101235.47
2018-06-15T05:45:26.968Z,101233.41
2018-06-15T05:47:55.840Z,101232.69
2018-06-15T05:50:24.675Z,101232.52
2018-06-15T05:52:53.524Z,101234.91
2018-06-15T05:55:22.436Z,101234.87
2018-06-15T05:57:51.272Z,101236.74
2018-06-15T06:00:20.307Z,101237.89
2018-06-15T06:02:49.170Z,101235.53
2018-06-15T06:05:18.013Z,101242.60
2018-06-15T06:07:46.891Z,101241.89
2018-06-15T06:10:15.793Z,101238.80
2018-06-15T06:12:44.673Z,101239.32
2018-06-15T06:15:13.565Z,101243.44
2018-06-15T06:17:42.543Z,101244.65
2018-06-15T06:20:11.579Z,101242.92
2018-06-15T06:22:40.438Z,101249.05
2018-06-15T06:25:09.382Z,101247.42
2018-06-15T06:27:38.266Z,101255.75
2018-06-15T06:30:07.167Z,101252.07
2018-06-15T06:32:36.103Z,101253.08
2018-06-15T06:35:04.944Z,101260.91
2018-06-15T06:37:33.851Z,101257.44
2018-06-15T06:40:02.763Z,101259.31
2018-06-15T06:42:31.663Z,101261.53
2018-06-15T06:45:00.548Z,101264.63
2018-06-15T06:47:29.433Z,101268.55
2018-06-15T06:49:58.338Z,101271.85
2018-06-15T06:52:27.217Z,101266.36
2018-06-15T06:54:56.102Z,101263.91
2018-06-15T06:57:24.956Z,101263.25
2018-06-15T06:59:53.811Z,101263.61
2018-06-15T07:02:22.669Z,101263.79
2018-06-15T07:04:51.565Z,101261.17
2018-06-15T07:07:20.490Z,101261.50
2018-06-15T07:09:49.372Z,101263.74
2018-06-15T07:12:18.292Z,101268.66
2018-06-15T07:14:47.146Z,101270.50
2018-06-15T07:17:16.025Z,101264.48
2018-06-15T07:19:44.903Z,101262.77
2018-06-15T07:22:13.792Z,101269.25
2018-06-15T07:24:42.695Z,101260.81
2018-06-15T07:27:11.573Z,101265.97
2018-06-15T07:29:40.475Z,101263.38
2018-06-15T07:32:09.457Z,101263.14
2018-06-15T07:34:38.332Z,101263.02
2018-06-15T07:37:07.342Z,101267.95
2018-06-15T07:39:36.264Z,101270.00
2018-06-15T07:42:05.222Z,101273.42
2018-06-15T07:44:34.426Z,101271.21
2018-06-15T07:47:03.717Z,101266.23
2018-06-15T07:49:32.593Z,101261.96
2018-06-15T07:52:01.454Z,101263.47
2018-06-15T07:54:30.356Z,101261.63
2018-06-15T07:56:59.297Z,101265.20
2018-06-15T07:59:28.215Z,101266.12
2018-06-15T08:01:57.060Z,101269.95
2018-06-15T08:04:25.993Z,101272.73
2018-06-15T08:06:54.852Z,101266.85
2018-06-15T08:09:23.763Z,101273.72
2018-06-15T08:11:52.627Z,101273.40
2018-06-15T08:14:21.465Z,101269.11
2018-06-15T08:16:50.306Z,101272.37
2018-06-15T08:19:19.139Z,101269.94
2018-06-15T08:21:47.991Z,101265.60
2018-06-15T08:24:16.821Z,101271.17
2018-06-15T08:26:45.676Z,101263.39
2018-06-15T08:29:14.528Z,101266.34
2018-06-15T08:31:43.367Z,101265.41
2018-06-15T08:34:12.411Z,101260.43
2018-06-15T08:36:43.042Z,101259.64
2018-06-15T08:39:16.261Z,101262.19
2018-06-15T08:41:45.067Z,101263.59
2018-06-15T08:44:13.931Z,101266.78
2018-06-15T08:46:42.832Z,101268.20
2018-06-15T08:49:11.673Z,101272.11
2018-06-15T08:51:40.508Z,101275.49
2018-06-15T08:54:09.447Z,101271.16
2018-06-15T08:56:38.313Z,101272.58
2018-06-15T08:59:07.181Z,101272.36
2018-06-15T09:01:36.045Z,101270.88
2018-06-15T09:04:04.914Z,101267.13
2018-06-15T09:06:33.749Z,101265.82
2018-06-15T09:09:02.625Z,101269.95
2018-06-15T09:11:31.508Z,101270.66
2018-06-15T09:14:00.393Z,101278.22
2018-06-15T09:16:29.253Z,101276.91
2018-06-15T09:18:58.126Z,101281.53
2018-06-15T09:21:26.988Z,101270.90
2018-06-15T09:23:55.927Z,101276.73
2018-06-15T09:26:24.824Z,101279.01
2018-06-15T09:28:53.687Z,101277.10
2018-06-15T09:31:22.641Z,101282.44
2018-06-15T09:33:51.490Z,101279.31
2018-06-15T09:36:20.414Z,101276.21
2018-06-15T09:38:49.281Z,101282.66
2018-06-15T09:41:18.132Z,101278.59
2018-06-15T09:43:47.021Z,101274.36
2018-06-15T09:46:15.929Z,101272.92
2018-06-15T09:48:45.343Z,101272.48
2018-06-15T09:51:15.516Z,101270.41
2018-06-15T09:53:44.239Z,101269.61
2018-06-15T09:56:13.279Z,101263.92
2018-06-15T09:58:42.777Z,101268.39
2018-06-15T10:01:11.986Z,101261.98
2018-06-15T10:03:41.223Z,101270.17
2018-06-15T10:06:10.181Z,101267.25
2018-06-15T10:08:39.023Z,101265.69
2018-06-15T10:11:07.892Z,101265.62
2018-06-15T10:13:36.727Z,101261.98
2018-06-15T10:16:05.747Z,101265.45
2018-06-15T10:18:34.589Z,101264.83
2018-06-15T10:21:03.489Z,101264.56
2018-06-15T10:23:32.338Z,101265.41
2018-06-15T10:26:01.197Z,101259.44
2018-06-15T10:28:30.080Z,101250.06
2018-06-15T10:30:58.938Z,101251.40
2018-06-15T10:33:27.801Z,101253.18
2018-06-15T10:35:57.043Z,101253.63
2018-06-15T10:38:25.985Z,101250.16
2018-06-15T10:40:54.851Z,101257.94
2018-06-15T10:43:23.731Z,101256.91
2018-06-15T10:45:52.599Z,101266.58
2018-06-15T10:48:21.485Z,101247.03
2018-06-15T10:50:50.410Z,101247.56
2018-06-15T10:53:19.213Z,101242.53
2018-06-15T10:55:48.078Z,101245.84
2018-06-15T10:58:17.003Z,101242.56
2018-06-15T11:00:45.862Z,101247.02
2018-06-15T11:03:14.712Z,101245.75
2018-06-15T11:05:43.621Z,101243.95
2018-06-15T11:08:12.543Z,101233.89
2018-06-15T11:10:41.433Z,101224.94
2018-06-15T11:13:10.266Z,101225.75
2018-06-15T11:15:39.131Z,101223.23
2018-06-15T11:18:07.972Z,101224.17
2018-06-15T11:20:36.861Z,101224.48
2018-06-15T11:23:05.741Z,101226.67
2018-06-15T11:25:34.673Z,101228.44
2018-06-15T11:28:03.516Z,101223.42
2018-06-15T11:30:32.366Z,101217.84
2018-06-15T11:33:01.281Z,101214.32
2018-06-15T11:35:30.180Z,101217.72
2018-06-15T11:37:59.061Z,101219.24
2018-06-15T11:40:28.060Z,101212.91
2018-06-15T11:42:56.941Z,101209.78
2018-06-15T11:45:25.893Z,101214.11
2018-06-15T11:47:54.845Z,101219.81
2018-06-15T11:50:23.864Z,101211.75
2018-06-15T11:52:53.051Z,101214.48
2018-06-15T11:55:21.966Z,101209.72
2018-06-15T11:57:53.902Z,101215.12
2018-06-15T12:00:22.788Z,101213.56
2018-06-15T12:02:51.703Z,101214.70
2018-06-15T12:05:20.603Z,101212.52
2018-06-15T12:07:49.517Z,101208.15
2018-06-15T12:10:18.369Z,101209.43
2018-06-15T12:12:47.275Z,101205.06
2018-06-15T12:15:16.153Z,101201.72
2018-06-15T12:17:45.032Z,101197.62
2018-06-15T12:20:13.902Z,101202.79
2018-06-15T12:22:42.759Z,101200.80
2018-06-15T12:25:11.610Z,101195.00
2018-06-15T12:27:40.687Z,101201.02
2018-06-15T12:30:09.624Z,101195.02
2018-06-15T12:32:38.574Z,101182.94
2018-06-15T12:35:07.489Z,101188.44
2018-06-15T12:37:36.380Z,101176.52
2018-06-15T12:40:05.363Z,101180.55
2018-06-15T12:42:34.251Z,101172.20
2018-06-15T12:45:03.206Z,101179.91
2018-06-15T12:47:32.032Z,101186.56
2018-06-15T12:50:01.509Z,101184.02
2018-06-15T12:52:30.917Z,101193.83
2018-06-15T12:55:00.151Z,101185.80
2018-06-15T12:57:29.333Z,101189.48
2018-06-15T12:59:58.415Z,101195.45
2018-06-15T13:02:27.957Z,101188.39
2018-06-15T13:04:57.213Z,101186.81
2018-06-15T13:07:26.484Z,101192.76
2018-06-15T13:09:55.662Z,101187.48
2018-06-15T13:12:24.892Z,101184.33
2018-06-15T13:14:54.027Z,101186.54
2018-06-15T13:17:25.288Z,101199.62
2018-06-15T13:19:57.651Z,101194.61
2018-06-15T13:22:26.739Z,101190.25
2018-06-15T13:24:55.936Z,101186.48
2018-06-15T13:27:25.044Z,101192.55
2018-06-15T13:29:54.124Z,101186.61
2018-06-15T13:32:23.556Z,101186.79
2018-06-15T13:34:52.683Z,101174.73
2018-06-15T13:37:22.753Z,101176.34
2018-06-15T13:39:52.120Z,101181.36
2018-06-15T13:42:23.806Z,101182.17
2018-06-15T13:44:53.109Z,101171.55
2018-06-15T13:47:22.267Z,101182.10
2018-06-15T13:49:51.539Z,101176.84
2018-06-15T13:52:20.555Z,101172.79
2018-06-15T13:54:52.715Z,101179.73
2018-06-15T13:57:21.757Z,101181.94
2018-06-15T13:59:51.353Z,101175.49
2018-06-15T14:02:20.252Z,101171.32
2018-06-15T14:04:49.567Z,101174.61
2018-06-15T14:07:21.351Z,101176.61
2018-06-15T14:09:50.707Z,101177.55
2018-06-15T14:12:19.814Z,101175.73
2018-06-15T14:14:48.920Z,101179.11
2018-06-15T14:17:18.022Z,101180.95
2018-06-15T14:19:47.109Z,101178.89
2018-06-15T14:22:17.061Z,101177.00
2018-06-15T14:24:46.498Z,101172.93
2018-06-15T14:27:15.569Z,101171.05
2018-06-15T14:29:44.923Z,101172.93
2018-06-15T14:32:14.263Z,101163.09
2018-06-15T14:34:44.573Z,101168.32
2018-06-15T14:37:16.539Z,101158.38
2018-06-15T14:39:42.692Z,101157.92
2018-06-15T14:46:18.135Z,101154.61
2018-06-15T14:49:30.036Z,101148.94
2018-06-15T14:52:23.232Z,101150.34
2018-06-15T14:55:22.233Z,101142.09
2018-06-15T14:58:11.581Z,101131.30
2018-06-15T15:01:00.482Z,101136.80
2018-06-15T15:03:44.208Z,101130.68
2018-06-15T15:06:20.529Z,101132.16
2018-06-15T15:09:10.302Z,101128.89
2018-06-15T15:11:56.381Z,101128.51
2018-06-15T15:14:38.243Z,101125.09
2018-06-15T15:17:26.745Z,101125.09
2018-06-15T15:19:57.634Z,101116.31
2018-06-15T15:22:37.947Z,101122.22
2018-06-15T15:25:10.519Z,101125.23
2018-06-15T15:27:54.991Z,101123.45
2018-06-15T15:30:43.388Z,101126.70
2018-06-15T15:33:36.026Z,101127.98
2018-06-15T15:36:26.031Z,101132.24
2018-06-15T15:39:12.125Z,101135.64
2018-06-15T15:42:00.274Z,101138.87
2018-06-15T15:44:37.491Z,101137.03
2018-06-15T15:47:18.090Z,101134.77
2018-06-15T15:49:58.918Z,101129.89
2018-06-15T15:52:31.388Z,101121.52
2018-06-15T15:55:02.850Z,101124.44
2018-06-15T15:58:06.578Z,101132.86
2018-06-15T16:01:01.698Z,101126.47
2018-06-15T16:03:41.353Z,101128.41
2018-06-15T16:06:23.813Z,101128.04
2018-06-15T16:09:00.661Z,101130.27
2018-06-15T16:11:42.831Z,101129.42
2018-06-15T16:14:14.635Z,101131.48
2018-06-15T16:16:51.825Z,101127.08
2018-06-15T16:19:45.447Z,101134.05
2018-06-15T16:22:43.186Z,101131.94
2018-06-15T16:25:25.365Z,101131.40
2018-06-15T16:27:59.997Z,101128.75
2018-06-15T16:30:34.984Z,101127.75
2018-06-15T16:33:08.508Z,101133.39
2018-06-15T16:38:44.792Z,101126.58
2018-06-15T16:41:13.980Z,101124.91
2018-06-15T16:43:43.430Z,101124.72
2018-06-15T16:46:12.713Z,101126.45
2018-06-15T16:48:42.135Z,101131.84
2018-06-15T16:51:11.435Z,101124.47
2018-06-15T16:53:42.079Z,101127.91
2018-06-15T16:56:11.268Z,101124.98
2018-06-15T16:58:40.669Z,101124.50
2018-06-15T17:01:10.082Z,101124.31
2018-06-15T17:03:39.403Z,101123.57
2018-06-15T17:06:08.809Z,101119.41
2018-06-15T17:08:38.168Z,101115.02
2018-06-15T17:11:07.465Z,101116.67
2018-06-15T17:13:39.046Z,101115.42
2018-06-15T17:16:08.665Z,101120.20
2018-06-15T17:18:38.220Z,101112.19
2018-06-15T17:21:07.295Z,101108.88
2018-06-15T17:23:36.432Z,101105.16
2018-06-15T17:26:05.600Z,101110.49
2018-06-15T17:28:35.023Z,101116.44
2018-06-15T17:31:06.343Z,101113.77
2018-06-15T17:33:35.556Z,101114.20
2018-06-15T17:36:04.775Z,101110.57
2018-06-15T17:38:34.295Z,101111.60
2018-06-15T17:41:03.802Z,101114.38
2018-06-15T17:43:33.016Z,101104.28
2018-06-15T17:46:05.278Z,101107.59
2018-06-15T17:48:34.745Z,101104.41
2018-06-15T17:51:05.374Z,101104.58
2018-06-15T17:53:34.397Z,101102.84
2018-06-15T17:56:06.335Z,101112.91
2018-06-15T17:58:35.821Z,101109.73
2018-06-15T18:01:05.667Z,101111.34
2018-06-15T18:03:35.075Z,101116.72
2018-06-15T18:06:04.205Z,101111.15
2018-06-15T18:08:33.479Z,101114.52
2018-06-15T18:11:02.789Z,101110.92
2018-06-15T18:13:32.042Z,101112.14
2018-06-15T18:16:01.352Z,101114.81
2018-06-15T18:18:30.621Z,101115.40
2018-06-15T18:21:00.055Z,101116.69
2018-06-15T18:23:29.057Z,101117.78
2018-06-15T18:25:58.326Z,101116.41
2018-06-15T18:28:27.660Z,101117.84
2018-06-15T18:30:56.850Z,101113.50
2018-06-15T18:33:26.737Z,101122.27
2018-06-15T18:35:59.542Z,101120.91
2018-06-15T18:38:28.937Z,101122.53
2018-06-15T18:41:00.830Z,101115.85
2018-06-15T18:43:30.089Z,101117.14
2018-06-15T18:45:59.300Z,101112.06
2018-06-15T18:48:28.631Z,101112.13
2018-06-15T18:50:57.681Z,101112.81
2018-06-15T18:53:27.203Z,101109.77
2018-06-15T18:55:58.122Z,101113.24
2018-06-15T18:58:27.599Z,101115.98
2018-06-15T19:00:57.271Z,101122.64
2018-06-15T19:03:26.670Z,101116.73
2018-06-15T19:06:01.033Z,101119.66
2018-06-15T19:08:30.523Z,101115.22
2018-06-15T19:10:59.644Z,101117.02
2018-06-15T19:13:29.264Z,101118.83
2018-06-15T19:15:59.071Z,101120.00
2018-06-15T19:18:28.553Z,101115.89
2018-06-15T19:20:59.322Z,101115.55
2018-06-15T19:23:28.683Z,101116.64
2018-06-15T19:25:57.877Z,101117.77
2018-06-15T19:28:27.031Z,101113.06
2018-06-15T19:30:56.166Z,101118.23
2018-06-15T19:33:25.365Z,101121.52
2018-06-15T19:35:54.798Z,101117.45
2018-06-15T19:38:24.218Z,101119.03
2018-06-15T19:40:53.663Z,101114.03
2018-06-15T19:43:22.890Z,101114.84
2018-06-15T19:45:54.679Z,101122.72
2018-06-15T19:48:24.503Z,101121.80
2018-06-15T19:50:53.770Z,101128.84
2018-06-15T19:53:22.951Z,101122.72
2018-06-15T19:55:52.302Z,101119.61
2018-06-15T19:58:21.518Z,101120.69
2018-06-15T20:00:50.642Z,101119.14
2018-06-15T20:03:19.715Z,101120.78
2018-06-15T20:05:49.272Z,101119.66
2018-06-15T20:08:18.419Z,101127.75
2018-06-15T20:10:47.707Z,101126.45
2018-06-15T20:13:16.685Z,101129.34
2018-06-15T20:15:46.022Z,101127.50
2018-06-15T20:18:15.394Z,101124.31
2018-06-15T20:20:47.646Z,101123.84
2018-06-15T20:23:17.163Z,101126.08
2018-06-15T20:25:48.751Z,101125.93
2018-06-15T20:28:18.281Z,101128.48
2018-06-15T20:30:47.693Z,101127.39
2018-06-15T20:33:16.505Z,101125.63
2018-06-15T20:35:45.419Z,101130.41
2018-06-15T20:38:14.308Z,101126.72
2018-06-15T20:40:43.200Z,101122.05
2018-06-15T20:43:12.376Z,101130.92
2018-06-15T20:45:41.223Z,101126.32
2018-06-15T20:48:10.072Z,101124.20
2018-06-15T20:50:39.069Z,101124.23
2018-06-15T20:53:07.950Z,101126.84
2018-06-15T20:55:43.083Z,101130.77
2018-06-15T20:58:11.979Z,101123.34
2018-06-15T21:00:40.849Z,101124.89
2018-06-15T21:03:09.714Z,101119.14
2018-06-15T21:05:38.650Z,101122.25
2018-06-15T21:08:07.585Z,101125.22
2018-06-15T21:10:36.812Z,101127.84
2018-06-15T21:13:05.970Z,101117.02
2018-06-15T21:15:34.890Z,101116.01
2018-06-15T21:18:03.863Z,101124.27
2018-06-15T21:20:32.733Z,101123.38
2018-06-15T21:23:01.641Z,101125.13
2018-06-15T21:25:33.129Z,101117.55
2018-06-15T21:28:01.966Z,101118.26
2018-06-15T21:30:30.899Z,101116.55
2018-06-15T21:32:59.789Z,101116.45
2018-06-15T21:35:28.662Z,101121.97
2018-06-15T21:37:57.690Z,101122.56
2018-06-15T21:40:26.548Z,101125.84
2018-06-15T21:42:55.445Z,101122.06
2018-06-15T21:45:24.313Z,101123.28
2018-06-15T21:47:53.197Z,101124.53
2018-06-15T21:50:22.137Z,101123.92
2018-06-15T21:52:51.053Z,101119.95
2018-06-15T21:55:20.001Z,101118.28
2018-06-15T21:57:48.766Z,101118.46
2018-06-15T22:00:17.705Z,101115.43
2018-06-15T22:02:46.580Z,101114.19
2018-06-15T22:05:15.447Z,101114.52
2018-06-15T22:07:44.307Z,101115.55
2018-06-15T22:10:13.162Z,101108.53
2018-06-15T22:12:42.120Z,101110.09
2018-06-15T22:15:11.117Z,101113.04
2018-06-15T22:17:40.104Z,101113.23
2018-06-15T22:20:11.412Z,101113.61
2018-06-15T22:22:40.250Z,101109.52
2018-06-15T22:25:09.167Z,101104.37
2018-06-15T22:27:38.462Z,101105.92
2018-06-15T22:30:07.860Z,101106.83
2018-06-15T22:32:36.752Z,101113.81
2018-06-15T22:35:05.895Z,101109.52
2018-06-15T22:37:34.834Z,101103.91
2018-06-15T22:40:03.708Z,101095.86
2018-06-15T22:42:34.260Z,101099.97
2018-06-15T22:45:03.197Z,101094.66
2018-06-15T22:47:32.061Z,101096.22
2018-06-15T22:50:00.921Z,101095.91
2018-06-15T22:52:29.781Z,101095.57
2018-06-15T22:54:58.716Z,101103.45
2018-06-15T22:57:27.478Z,101102.08
2018-06-15T22:59:56.360Z,101098.66
2018-06-15T23:02:25.276Z,101101.23
2018-06-15T23:04:57.467Z,101094.56
2018-06-15T23:07:26.365Z,101095.45
2018-06-15T23:09:55.283Z,101094.33
2018-06-15T23:12:24.130Z,101099.00
2018-06-15T23:14:52.962Z,101094.90
2018-06-15T23:17:21.846Z,101091.52
2018-06-15T23:19:50.740Z,101091.17
2018-06-15T23:22:19.623Z,101088.55
2018-06-15T23:24:48.584Z,101085.34
2018-06-15T23:27:23.707Z,101087.41
2018-06-15T23:29:52.586Z,101084.37
2018-06-15T23:32:21.441Z,101080.95
2018-06-15T23:34:50.873Z,101084.37
2018-06-15T23:37:19.743Z,101093.98
2018-06-15T23:39:48.611Z,101086.55
2018-06-15T23:42:17.518Z,101086.03
2018-06-15T23:44:46.339Z,101087.24
2018-06-15T23:47:15.220Z,101079.88
2018-06-15T23:49:47.198Z,101082.95
2018-06-15T23:52:16.100Z,101084.67
2018-06-15T23:54:44.960Z,101077.69
2018-06-15T23:57:13.843Z,101080.61
2018-06-15T23:59:42.729Z,101074.09
